Time;durP1;ratioP1;P1;durP2;ratioP2;P2;SDS_P1;SDS_P2;PMS_P1;PMS_P2;Temp;Humidity;BMP_temperature;BMP_pressure;BME280_temperature;BME280_humidity;BME280_pressure;Samples;Min_cycle;Max_cycle;Signal;HPM_P1;HPM_P2
2023/02/18 00:01:38;;;;;;;50.10;31.40;;;;;;;3.98;66.65;100061.48;105576;1257;62299;-50
2023/02/18 00:04:08;;;;;;;30.90;13.90;;;;;;;3.94;66.72;100054.21;105876;1259;65267;-50
2023/02/18 00:06:37;;;;;;;28.20;13.20;;;;;;;3.89;66.91;100043.40;105109;1257;61756;-51
2023/02/18 00:09:07;;;;;;;56.40;32.00;;;;;;;3.83;67.20;100041.67;105118;1261;60877;-55
2023/02/18 00:11:37;;;;;;;27.50;12.10;;;;;;;3.79;67.40;100032.69;105101;1260;66059;-54
2023/02/18 00:14:09;;;;;;;26.40;11.50;;;;;;;3.81;67.39;100029.29;106227;1257;62418;-52
2023/02/18 00:16:40;;;;;;;58.80;32.00;;;;;;;3.85;67.46;100021.27;105834;1258;63735;-54
2023/02/18 00:19:16;;;;;;;24.60;10.60;;;;;;;3.89;67.56;100018.58;105230;1260;60566;-53
2023/02/18 00:21:44;;;;;;;27.20;12.60;;;;;;;3.95;67.66;100008.69;105303;1256;60577;-53
2023/02/18 00:24:14;;;;;;;50.30;31.80;;;;;;;3.97;67.77;100003.73;105066;1260;66436;-53
2023/02/18 00:26:42;;;;;;;23.20;12.80;;;;;;;3.96;67.89;99996.87;104940;1260;62742;-54
2023/02/18 00:29:11;;;;;;;29.20;13.00;;;;;;;3.92;68.04;99985.98;105635;1259;65437;-54
2023/02/18 00:31:40;;;;;;;36.80;16.30;;;;;;;3.88;68.14;99980.66;105064;1257;60393;-53
2023/02/18 00:34:09;;;;;;;28.20;14.20;;;;;;;3.81;68.38;99972.55;105433;1257;60449;-54
2023/02/18 00:36:37;;;;;;;34.60;16.70;;;;;;;3.72;68.57;99956.91;105116;1258;64787;-54
2023/02/18 00:39:07;;;;;;;29.50;14.40;;;;;;;3.66;68.79;99948.46;105278;1260;62620;-54
2023/02/18 00:41:35;;;;;;;55.90;32.40;;;;;;;3.61;69.04;99932.23;105146;1261;73574;-54
2023/02/18 00:44:04;;;;;;;33.50;14.00;;;;;;;3.63;69.10;99927.83;105162;1258;60549;-54
2023/02/18 00:46:33;;;;;;;22.90;10.80;;;;;;;3.66;69.15;99920.88;105457;1258;60451;-53
2023/02/18 00:49:03;;;;;;;24.50;11.20;;;;;;;3.70;69.22;99909.38;105317;1259;66119;-54
2023/02/18 00:51:32;;;;;;;29.70;12.20;;;;;;;3.88;69.05;99899.98;105196;1260;62654;-52
2023/02/18 00:54:05;;;;;;;56.30;35.40;;;;;;;3.93;69.09;99893.07;105091;1258;64052;-54
2023/02/18 00:56:33;;;;;;;33.60;13.00;;;;;;;3.94;69.10;99885.38;105178;1257;60332;-54
2023/02/18 00:59:02;;;;;;;58.70;34.70;;;;;;;3.78;69.52;99878.48;105829;1261;60545;-53
2023/02/18 01:01:30;;;;;;;32.00;13.40;;;;;;;3.71;69.77;99871.97;104864;1261;276084;-54
2023/02/18 01:17:03;;;;;;;56.50;37.80;;;;;;;3.88;69.90;99834.15;103209;1283;606124;-55
2023/02/18 01:19:33;;;;;;;57.80;36.00;;;;;;;4.24;69.36;99814.77;105204;1263;84557;-53
2023/02/18 01:22:01;;;;;;;29.70;15.10;;;;;;;4.23;69.20;99806.14;104883;1260;59355;-53
2023/02/18 01:24:30;;;;;;;32.30;17.50;;;;;;;4.24;69.16;99791.85;105604;1261;64280;-54
2023/02/18 01:27:00;;;;;;;58.30;35.50;;;;;;;4.24;69.34;99780.92;105533;1260;62434;-54
2023/02/18 01:29:28;;;;;;;32.10;14.60;;;;;;;4.21;69.40;99775.18;106086;1260;65025;-54
2023/02/18 01:31:56;;;;;;;32.40;16.50;;;;;;;4.14;69.47;99764.70;105165;1257;59270;-53
2023/02/18 01:34:25;;;;;;;33.90;17.40;;;;;;;4.06;69.71;99757.40;105293;1257;59239;-54
2023/02/18 01:36:54;;;;;;;63.30;40.90;;;;;;;3.95;70.00;99753.74;105302;1259;64655;-56
2023/02/18 01:39:25;;;;;;;33.50;17.80;;;;;;;3.87;70.20;99742.13;105181;1257;62708;-53
2023/02/18 01:41:54;;;;;;;59.70;36.00;;;;;;;3.86;70.44;99739.02;105232;1260;65251;-54
2023/02/18 01:44:24;;;;;;;58.60;36.10;;;;;;;3.88;70.48;99726.95;105107;1260;60117;-54
2023/02/18 01:46:52;;;;;;;29.60;13.70;;;;;;;3.88;70.53;99716.70;105286;1261;59753;-53
2023/02/18 01:49:32;;;;;;;40.30;17.80;;;;;;;3.90;70.64;99710.69;105318;1255;65036;-55
2023/02/18 01:52:06;;;;;;;59.70;37.80;;;;;;;4.02;70.55;99701.63;105015;1257;62702;-55
2023/02/18 01:54:38;;;;;;;34.70;15.10;;;;;;;3.99;70.68;99700.55;105255;1257;65316;-54
2023/02/18 01:57:15;;;;;;;33.90;14.70;;;;;;;3.98;70.59;99700.63;105176;1256;59758;-53
2023/02/18 01:59:54;;;;;;;33.40;14.30;;;;;;;3.93;70.80;99694.71;105194;1263;59752;-55
2023/02/18 02:02:24;;;;;;;32.90;17.60;;;;;;;3.92;70.92;99683.34;105088;1259;65371;-55
2023/02/18 02:04:53;;;;;;;33.40;15.80;;;;;;;3.89;70.88;99673.96;105722;1257;62311;-53
2023/02/18 02:07:23;;;;;;;32.90;16.60;;;;;;;3.80;71.30;99663.98;105144;1255;64800;-53
2023/02/18 02:09:55;;;;;;;60.10;38.20;;;;;;;3.77;71.50;99655.83;105476;1259;59980;-53
2023/02/18 02:12:59;;;;;;;25.60;15.50;;;;;;;3.71;71.77;99649.98;105226;1257;59724;-53
2023/02/18 02:15:45;;;;;;;27.90;15.10;;;;;;;3.65;71.94;99644.27;105215;1261;65382;-54
2023/02/18 02:18:24;;;;;;;42.70;20.00;;;;;;;3.62;71.86;99639.45;105329;1258;62911;-55
2023/02/18 02:21:44;;;;;;;60.40;37.20;;;;;;;3.64;71.58;99636.34;105277;1258;64908;-55
2023/02/18 02:24:37;;;;;;;29.00;13.10;;;;;;;3.73;71.34;99628.31;105264;1257;59771;-55
2023/02/18 02:27:25;;;;;;;27.60;14.50;;;;;;;3.61;71.70;99616.09;105062;1257;59669;-53
2023/02/18 02:30:12;;;;;;;32.30;15.00;;;;;;;3.56;71.88;99613.46;105047;1259;65624;-52
2023/02/18 02:33:06;;;;;;;32.60;15.80;;;;;;;3.49;72.01;99610.39;105518;1256;62349;-53
2023/02/18 02:35:37;;;;;;;32.20;14.00;;;;;;;3.43;72.04;99604.00;105123;1256;65036;-53
2023/02/18 02:38:10;;;;;;;35.20;17.80;;;;;;;3.36;72.06;99593.86;105123;1260;59653;-55
2023/02/18 02:40:51;;;;;;;26.50;13.20;;;;;;;3.28;72.04;99580.64;105151;1257;59653;-53
2023/02/18 02:43:25;;;;;;;33.70;14.70;;;;;;;3.23;72.20;99570.91;105327;1257;64101;-55
2023/02/18 02:46:07;;;;;;;33.70;14.80;;;;;;;3.23;72.18;99570.23;105339;1258;64870;-54
2023/02/18 02:49:01;;;;;;;28.20;14.90;;;;;;;3.22;72.22;99565.45;105928;1257;65225;-56
2023/02/18 02:51:34;;;;;;;31.00;14.80;;;;;;;3.17;72.35;99559.33;105221;1257;59700;-54
2023/02/18 02:54:14;;;;;;;25.30;13.10;;;;;;;3.24;72.27;99553.55;105119;1257;60300;-54
2023/02/18 02:56:43;;;;;;;23.60;11.40;;;;;;;3.14;72.40;99549.31;105162;1257;65132;-54
2023/02/18 02:59:23;;;;;;;32.20;13.50;;;;;;;3.05;72.64;99542.75;104917;1258;62261;-53
2023/02/18 03:02:27;;;;;;;34.40;13.90;;;;;;;3.08;72.63;99532.68;105098;1260;65046;-54
2023/02/18 03:05:09;;;;;;;25.30;12.60;;;;;;;3.12;72.61;99525.52;104937;1260;59588;-55
2023/02/18 03:08:15;;;;;;;33.30;13.30;;;;;;;3.15;72.79;99520.65;105037;1260;59605;-54
2023/02/18 03:11:02;;;;;;;26.70;13.50;;;;;;;3.15;73.01;99515.96;105181;1258;65097;-54
2023/02/18 03:13:35;;;;;;;25.10;12.30;;;;;;;3.14;73.14;99509.23;105124;1263;61457;-55
2023/02/18 03:16:23;;;;;;;29.40;14.00;;;;;;;3.17;73.12;99508.41;105466;1257;65050;-53
2023/02/18 03:19:19;;;;;;;52.10;32.60;;;;;;;3.18;73.05;99500.73;105726;1257;59758;-54
2023/02/18 03:21:52;;;;;;;23.80;9.90;;;;;;;3.15;73.30;99493.08;105245;1262;63121;-52
2023/02/18 03:24:41;;;;;;;25.40;12.40;;;;;;;3.18;73.29;99488.07;105432;1259;73947;-54
2023/02/18 03:27:21;;;;;;;30.50;12.30;;;;;;;3.18;73.50;99480.28;104985;1257;62475;-51
2023/02/18 03:30:12;;;;;;;28.30;14.40;;;;;;;3.15;73.61;99476.98;105268;1260;64995;-51
2023/02/18 03:32:43;;;;;;;27.80;14.50;;;;;;;3.10;73.74;99469.65;105190;1257;59647;-50
2023/02/18 03:35:14;;;;;;;24.40;11.40;;;;;;;3.10;73.78;99467.73;105618;1257;59628;-52
2023/02/18 03:38:01;;;;;;;25.00;12.40;;;;;;;3.15;73.79;99463.13;105216;1258;65279;-52
2023/02/18 03:40:29;;;;;;;29.30;12.80;;;;;;;3.21;73.98;99457.75;105240;1257;62613;-52
2023/02/18 03:43:01;;;;;;;47.90;32.30;;;;;;;3.21;73.90;99449.41;105210;1257;65056;-52
2023/02/18 03:45:31;;;;;;;25.80;12.40;;;;;;;3.21;73.92;99436.92;105591;1257;59678;-52
2023/02/18 03:48:02;;;;;;;28.10;13.40;;;;;;;3.13;74.18;99433.22;105230;1257;59583;-51
2023/02/18 03:50:30;;;;;;;38.60;13.60;;;;;;;3.19;74.20;99436.15;105207;1262;72736;-52
2023/02/18 03:52:59;;;;;;;22.80;11.80;;;;;;;3.25;74.09;99420.41;105966;1256;64272;-54
2023/02/18 03:55:27;;;;;;;20.90;11.60;;;;;;;3.28;74.12;99418.81;105316;1260;63970;-53
2023/02/18 03:57:55;;;;;;;25.00;12.70;;;;;;;3.28;74.18;99408.73;105203;1257;59733;-50
2023/02/18 04:00:24;;;;;;;26.80;12.30;;;;;;;3.24;74.32;99397.38;105251;1257;59641;-50
2023/02/18 04:02:52;;;;;;;26.80;12.10;;;;;;;3.21;74.43;99391.32;105336;1260;65360;-51
2023/02/18 04:05:20;;;;;;;24.20;11.30;;;;;;;3.24;74.40;99389.59;105127;1256;62659;-54
2023/02/18 04:07:49;;;;;;;27.60;13.70;;;;;;;3.30;74.28;99379.31;105274;1261;64896;-51
2023/02/18 04:10:21;;;;;;;24.60;10.60;;;;;;;3.35;74.27;99369.44;105209;1257;59670;-51
2023/02/18 04:12:50;;;;;;;27.70;15.20;;;;;;;3.33;74.24;99357.42;105711;1257;59687;-52
2023/02/18 04:15:19;;;;;;;24.20;10.80;;;;;;;3.28;74.47;99356.70;105607;1260;65438;-49
2023/02/18 04:17:49;;;;;;;24.60;12.10;;;;;;;3.25;74.63;99358.14;105565;1254;62889;-49
2023/02/18 04:20:17;;;;;;;40.60;27.00;;;;;;;3.26;74.66;99349.77;105306;1259;72083;-48
2023/02/18 04:22:46;;;;;;;18.30;9.30;;;;;;;3.32;74.54;99346.04;105239;1260;59769;-50
2023/02/18 04:25:15;;;;;;;18.20;10.10;;;;;;;3.38;74.41;99338.18;105165;1254;59753;-51
2023/02/18 04:27:44;;;;;;;24.50;10.70;;;;;;;3.40;74.43;99333.94;105340;1259;65188;-51
2023/02/18 04:30:13;;;;;;;40.50;27.70;;;;;;;3.35;74.50;99326.45;105353;1254;62703;-51
2023/02/18 04:32:42;;;;;;;24.60;9.70;;;;;;;3.31;74.63;99323.61;105187;1254;63847;-51
2023/02/18 04:35:10;;;;;;;21.00;10.30;;;;;;;3.31;74.57;99311.30;105689;1254;59749;-53
2023/02/18 04:37:38;;;;;;;21.30;9.50;;;;;;;3.34;74.52;99304.30;105303;1254;60095;-50
2023/02/18 04:40:07;;;;;;;20.20;9.00;;;;;;;3.38;74.59;99299.22;105272;1258;74157;-54
2023/02/18 04:42:35;;;;;;;23.10;10.80;;;;;;;3.36;74.68;99292.56;105210;1255;62634;-51
2023/02/18 04:45:04;;;;;;;36.50;25.70;;;;;;;3.32;74.87;99304.09;105343;1258;65037;-51
2023/02/18 04:47:33;;;;;;;23.80;10.30;;;;;;;3.30;74.95;99297.80;105243;1254;59708;-51
2023/02/18 04:50:01;;;;;;;20.60;11.10;;;;;;;3.35;74.97;99290.05;105320;1255;59752;-51
2023/02/18 04:52:30;;;;;;;21.30;10.10;;;;;;;3.40;74.93;99277.90;105537;1259;65620;-51
2023/02/18 04:54:59;;;;;;;25.50;10.30;;;;;;;3.45;74.91;99270.13;105574;1260;63254;-51
2023/02/18 04:57:27;;;;;;;21.10;9.40;;;;;;;3.45;74.95;99270.16;105395;1254;65183;-53
2023/02/18 04:59:56;;;;;;;24.00;9.90;;;;;;;3.44;75.21;99267.42;105489;1260;59663;-52
2023/02/18 05:02:25;;;;;;;35.20;23.70;;;;;;;3.43;75.33;99264.37;105410;1254;59621;-52
2023/02/18 05:04:54;;;;;;;20.90;9.40;;;;;;;3.47;75.32;99257.30;109121;1255;65573;-50
2023/02/18 05:07:23;;;;;;;33.40;23.70;;;;;;;3.54;75.17;99251.11;109219;1254;62799;-50
2023/02/18 05:09:51;;;;;;;23.30;9.30;;;;;;;3.62;75.11;99250.09;109050;1254;64146;-50
2023/02/18 05:12:19;;;;;;;18.60;9.50;;;;;;;3.68;75.12;99248.28;109110;1254;57634;-50
2023/02/18 05:14:47;;;;;;;36.10;23.80;;;;;;;3.71;75.13;99241.09;109196;1254;57404;-53
2023/02/18 05:17:15;;;;;;;21.00;9.20;;;;;;;3.75;75.06;99237.54;108537;1255;64334;-52
2023/02/18 05:19:43;;;;;;;33.00;22.20;;;;;;;3.88;74.70;99237.48;105420;1254;62650;-52
2023/02/18 05:22:12;;;;;;;19.80;10.40;;;;;;;3.94;74.56;99232.55;105406;1258;64989;-50
2023/02/18 05:24:40;;;;;;;17.80;9.90;;;;;;;3.96;74.55;99219.60;105374;1254;59671;-50
2023/02/18 05:27:08;;;;;;;32.90;22.90;;;;;;;3.97;74.58;99215.68;105468;1259;59673;-52
2023/02/18 05:29:37;;;;;;;17.70;7.70;;;;;;;3.92;74.77;99193.95;105337;1255;65353;-52
2023/02/18 05:32:05;;;;;;;34.20;22.60;;;;;;;3.89;74.79;99186.89;105392;1258;61400;-49
2023/02/18 05:34:36;;;;;;;16.10;9.00;;;;;;;3.86;75.03;99191.48;105461;1257;65496;-53
2023/02/18 05:37:05;;;;;;;33.00;22.50;;;;;;;3.92;74.88;99195.08;105523;1257;60682;-54
2023/02/18 05:39:34;;;;;;;31.20;21.80;;;;;;;3.98;74.85;99194.46;105498;1259;60331;-51
2023/02/18 05:42:02;;;;;;;19.10;8.40;;;;;;;4.03;74.89;99192.55;105385;1260;66208;-51
2023/02/18 05:44:32;;;;;;;29.40;21.70;;;;;;;4.07;74.91;99196.56;105605;1255;65214;-52
2023/02/18 05:47:03;;;;;;;22.60;9.50;;;;;;;4.09;74.96;99192.10;105486;1259;65138;-52
2023/02/18 05:49:32;;;;;;;18.40;8.40;;;;;;;4.18;74.76;99188.81;105231;1254;60897;-52
2023/02/18 05:52:00;;;;;;;21.80;9.40;;;;;;;4.16;74.84;99190.73;105460;1254;60562;-51
2023/02/18 05:54:29;;;;;;;17.20;7.60;;;;;;;4.15;75.12;99176.54;105264;1257;66011;-53
2023/02/18 05:56:57;;;;;;;28.70;20.10;;;;;;;4.26;75.19;99188.83;105843;1259;62169;-53
2023/02/18 05:59:26;;;;;;;17.50;7.00;;;;;;;4.33;75.29;99201.65;105389;1254;64997;-54
2023/02/18 06:01:54;;;;;;;16.60;7.60;;;;;;;4.35;75.54;99191.13;105504;1260;60562;-51
2023/02/18 06:04:22;;;;;;;27.00;19.20;;;;;;;4.35;75.64;99174.92;105362;1256;60456;-50
2023/02/18 06:06:50;;;;;;;18.80;8.90;;;;;;;4.40;75.72;99173.33;105202;1254;65973;-51
2023/02/18 06:09:19;;;;;;;15.50;7.60;;;;;;;4.51;75.67;99168.02;105186;1260;62512;-53
2023/02/18 06:11:47;;;;;;;17.10;8.00;;;;;;;4.65;75.52;99161.09;105155;1260;64849;-50
2023/02/18 06:14:15;;;;;;;30.40;19.10;;;;;;;4.75;75.38;99158.76;105358;1260;60472;-51
2023/02/18 06:16:44;;;;;;;20.30;8.80;;;;;;;4.80;75.53;99164.10;105354;1254;60575;-51
2023/02/18 06:19:13;;;;;;;27.40;18.70;;;;;;;4.85;75.58;99162.75;105280;1260;66321;-50
2023/02/18 06:21:42;;;;;;;25.50;17.30;;;;;;;4.87;75.66;99153.55;105235;1254;62649;-52
2023/02/18 06:24:15;;;;;;;16.80;6.80;;;;;;;4.93;75.55;99152.88;105290;1254;65000;-50
2023/02/18 06:26:44;;;;;;;15.80;6.80;;;;;;;5.01;75.47;99151.56;105393;1257;60527;-50
2023/02/18 06:29:14;;;;;;;22.90;16.70;;;;;;;5.08;75.37;99143.06;105235;1260;60348;-51
2023/02/18 06:31:42;;;;;;;25.70;17.20;;;;;;;5.12;75.54;99146.95;105248;1254;66015;-53
2023/02/18 06:34:11;;;;;;;15.70;7.10;;;;;;;5.15;75.69;99145.64;105242;1254;62333;-52
2023/02/18 06:36:39;;;;;;;24.30;16.60;;;;;;;5.17;75.72;99147.02;105219;1254;65093;-52
2023/02/18 06:39:07;;;;;;;14.90;6.30;;;;;;;5.24;75.63;99143.57;105192;1254;60400;-49
2023/02/18 06:41:39;;;;;;;22.70;15.70;;;;;;;5.34;75.55;99149.05;105275;1255;60482;-52
2023/02/18 06:44:07;;;;;;;11.40;6.30;;;;;;;5.44;75.36;99144.81;105267;1256;65153;-51
2023/02/18 06:46:36;;;;;;;21.20;15.20;;;;;;;5.54;75.38;99140.59;105284;1257;62511;-52
2023/02/18 06:49:04;;;;;;;24.40;15.30;;;;;;;5.63;75.35;99143.14;105254;1254;65322;-53
2023/02/18 06:51:33;;;;;;;9.30;5.10;;;;;;;5.67;75.37;99142.52;105311;1254;60544;-53
2023/02/18 06:54:01;;;;;;;18.10;8.20;;;;;;;5.63;75.25;99127.11;105274;1254;60558;-54
2023/02/18 06:56:29;;;;;;;16.10;6.50;;;;;;;5.62;75.24;99127.23;105291;1259;66266;-51
2023/02/18 06:58:58;;;;;;;18.40;12.90;;;;;;;5.68;74.94;99128.61;105335;1255;63890;-49
2023/02/18 07:01:27;;;;;;;21.10;13.50;;;;;;;5.76;75.00;99123.81;105365;1260;64904;-53
2023/02/18 07:03:55;;;;;;;18.70;12.80;;;;;;;5.84;75.26;99122.55;105484;1257;60420;-54
2023/02/18 07:06:23;;;;;;;17.50;11.90;;;;;;;5.91;75.21;99118.74;105189;1254;60421;-53
2023/02/18 07:08:52;;;;;;;15.90;11.70;;;;;;;5.97;75.28;99115.55;105373;1259;66135;-52
2023/02/18 07:11:20;;;;;;;18.60;12.90;;;;;;;6.03;75.34;99110.77;105289;1254;63424;-52
2023/02/18 07:13:49;;;;;;;17.40;11.80;;;;;;;6.13;75.24;99110.23;105216;1259;65067;-51
2023/02/18 07:16:18;;;;;;;11.00;4.50;;;;;;;6.27;75.21;99115.92;105249;1254;60580;-51
2023/02/18 07:18:48;;;;;;;11.00;5.70;;;;;;;6.38;75.04;99113.98;105200;1254;60447;-52
2023/02/18 07:21:17;;;;;;;11.30;5.70;;;;;;;6.51;75.04;99122.27;105470;1259;75076;-52
2023/02/18 07:23:45;;;;;;;17.60;11.50;;;;;;;6.63;75.16;99124.91;105311;1258;71098;-50
2023/02/18 07:26:14;;;;;;;12.70;5.80;;;;;;;6.74;74.89;99128.56;105383;1259;65122;-54
2023/02/18 07:28:46;;;;;;;16.30;10.90;;;;;;;6.85;74.50;99127.96;105245;1257;60492;-51
2023/02/18 07:31:15;;;;;;;16.70;10.90;;;;;;;6.95;74.15;99132.58;105225;1254;60460;-52
2023/02/18 07:33:43;;;;;;;17.30;11.20;;;;;;;7.01;73.93;99128.02;105637;1254;64924;-52
2023/02/18 07:36:12;;;;;;;16.90;11.60;;;;;;;7.01;74.12;99121.59;105277;1260;61443;-52
2023/02/18 07:38:40;;;;;;;13.80;10.00;;;;;;;7.02;74.11;99132.48;105547;1254;65010;-53
2023/02/18 07:41:20;;;;;;;15.20;10.00;;;;;;;7.01;74.12;99141.80;105406;1254;60428;-52
2023/02/18 07:43:49;;;;;;;13.80;10.20;;;;;;;7.03;74.27;99148.25;105243;1257;60552;-53
2023/02/18 07:46:17;;;;;;;11.00;8.10;;;;;;;7.09;74.51;99154.25;105275;1254;66322;-53
2023/02/18 07:48:45;;;;;;;12.90;9.30;;;;;;;7.14;74.80;99156.79;105385;1259;61563;-53
2023/02/18 07:51:13;;;;;;;10.60;7.20;;;;;;;7.23;74.77;99161.09;105260;1260;65012;-50
2023/02/18 07:53:42;;;;;;;9.70;5.70;;;;;;;7.28;74.48;99159.42;105134;1260;61640;-53
2023/02/18 07:56:10;;;;;;;9.00;5.50;;;;;;;7.39;74.14;99155.11;105205;1256;60606;-52
2023/02/18 07:58:39;;;;;;;9.00;5.50;;;;;;;7.53;73.26;99155.30;105379;1259;66265;-53
2023/02/18 08:01:11;;;;;;;8.70;5.40;;;;;;;7.60;73.00;99156.31;105309;1254;62387;-53
2023/02/18 08:03:40;;;;;;;11.80;5.70;;;;;;;7.62;72.80;99159.77;105623;1262;65097;-52
2023/02/18 08:06:24;;;;;;;7.50;4.20;;;;;;;7.60;72.44;99161.48;105210;1256;60558;-51
2023/02/18 08:08:52;;;;;;;9.60;4.20;;;;;;;7.60;71.73;99155.61;105246;1258;60571;-53
2023/02/18 08:11:21;;;;;;;9.80;4.30;;;;;;;7.60;71.33;99149.26;105413;1258;66192;-53
2023/02/18 08:13:49;;;;;;;6.20;3.20;;;;;;;7.60;71.03;99137.94;105327;1254;62644;-52
2023/02/18 08:16:18;;;;;;;6.40;3.00;;;;;;;7.60;70.46;99141.48;105426;1259;64610;-53
2023/02/18 08:18:48;;;;;;;10.40;3.40;;;;;;;7.56;70.11;99139.20;105302;1260;60456;-53
2023/02/18 08:21:17;;;;;;;7.50;3.00;;;;;;;7.59;69.99;99131.06;105335;1257;60472;-53
2023/02/18 08:23:46;;;;;;;5.10;2.50;;;;;;;7.69;69.57;99130.75;105194;1255;74397;-53
2023/02/18 08:26:14;;;;;;;6.10;2.40;;;;;;;7.75;68.62;99123.41;105353;1254;62729;-53
2023/02/18 08:28:43;;;;;;;4.50;2.00;;;;;;;7.75;68.28;99117.27;105252;1255;63851;-53
2023/02/18 08:31:19;;;;;;;6.80;2.50;;;;;;;7.77;68.04;99117.44;105451;1254;60478;-53
2023/02/18 08:33:47;;;;;;;10.90;3.10;;;;;;;7.79;67.66;99116.92;105598;1255;60582;-53
2023/02/18 08:36:16;;;;;;;7.60;2.20;;;;;;;7.79;67.65;99127.94;105303;1254;66375;-54
2023/02/18 08:38:44;;;;;;;4.70;1.90;;;;;;;7.83;67.63;99128.68;105505;1254;62639;-51
2023/02/18 08:41:13;;;;;;;5.60;1.70;;;;;;;7.92;67.39;99129.75;105096;1260;65027;-51
2023/02/18 08:43:41;;;;;;;5.40;1.80;;;;;;;8.06;66.99;99134.46;105438;1254;60593;-53
2023/02/18 08:46:10;;;;;;;6.50;2.10;;;;;;;8.10;66.21;99146.69;105317;1256;60615;-53
2023/02/18 08:49:19;;;;;;;8.30;2.50;;;;;;;8.05;65.89;99150.30;105451;1257;65065;-52
2023/02/18 08:51:49;;;;;;;3.70;1.10;;;;;;;7.99;65.81;99147.45;105398;1259;62135;-53
2023/02/18 08:54:17;;;;;;;7.80;2.10;;;;;;;8.00;65.87;99148.44;105398;1254;65016;-52
2023/02/18 08:56:45;;;;;;;6.60;2.10;;;;;;;8.12;65.22;99147.55;105213;1259;60479;-54
2023/02/18 08:59:14;;;;;;;5.50;2.20;;;;;;;8.22;65.14;99142.30;105209;1254;60440;-53
2023/02/18 09:01:42;;;;;;;7.60;2.50;;;;;;;8.25;64.77;99143.76;105116;1260;65905;-53
2023/02/18 09:04:10;;;;;;;5.70;2.40;;;;;;;8.26;64.90;99145.47;106802;1255;62494;-54
2023/02/18 09:06:39;;;;;;;7.00;2.80;;;;;;;8.23;64.97;99152.57;105374;1259;64983;-53
2023/02/18 09:09:09;;;;;;;8.20;2.50;;;;;;;8.27;65.05;99149.36;105248;1255;61731;-55
2023/02/18 09:11:43;;;;;;;5.20;2.30;;;;;;;8.28;64.80;99155.34;106185;1254;60350;-54
2023/02/18 09:14:11;;;;;;;6.60;2.80;;;;;;;8.35;64.38;99160.34;105246;1260;66118;-53
2023/02/18 09:16:40;;;;;;;7.70;3.30;;;;;;;8.33;64.37;99146.70;105279;1257;61368;-54
2023/02/18 09:19:08;;;;;;;9.10;3.50;;;;;;;8.33;64.79;99150.04;105388;1257;63845;-54
2023/02/18 09:21:37;;;;;;;9.30;3.10;;;;;;;8.31;64.26;99152.30;105111;1262;60454;-54
2023/02/18 09:24:06;;;;;;;7.90;3.20;;;;;;;8.30;64.22;99144.20;105349;1254;60437;-54
2023/02/18 09:26:34;;;;;;;11.20;3.90;;;;;;;8.29;64.40;99149.73;105292;1259;67569;-54
2023/02/18 09:29:03;;;;;;;6.70;3.20;;;;;;;8.28;64.52;99144.03;105352;1257;62627;-54
2023/02/18 09:31:33;;;;;;;9.00;3.40;;;;;;;8.32;64.48;99146.80;105548;1254;65050;-54
2023/02/18 09:34:01;;;;;;;8.90;3.40;;;;;;;8.38;64.47;99146.91;105330;1260;60488;-54
2023/02/18 09:36:30;;;;;;;7.10;3.40;;;;;;;8.42;64.19;99148.86;105410;1254;60525;-55
2023/02/18 09:38:58;;;;;;;6.50;3.00;;;;;;;8.41;64.14;99143.23;105204;1255;66168;-57
2023/02/18 09:41:38;;;;;;;6.60;3.50;;;;;;;8.40;64.27;99145.41;105258;1257;62685;-54
2023/02/18 09:44:33;;;;;;;6.00;3.30;;;;;;;8.38;64.01;99151.45;105435;1263;65074;-54
2023/02/18 09:47:02;;;;;;;10.30;3.90;;;;;;;8.36;63.92;99148.54;105239;1260;60568;-53
2023/02/18 09:49:33;;;;;;;7.50;3.10;;;;;;;8.36;63.98;99148.87;105107;1255;60561;-54
2023/02/18 09:52:11;;;;;;;7.20;2.80;;;;;;;8.43;63.86;99144.98;105197;1255;66166;-53
2023/02/18 09:54:40;;;;;;;10.60;3.60;;;;;;;8.51;63.35;99149.80;104926;1257;63409;-50
2023/02/18 09:57:42;;;;;;;7.50;3.70;;;;;;;8.56;63.03;99148.88;105741;1257;66676;-53
2023/02/18 10:00:17;;;;;;;10.00;3.80;;;;;;;8.57;62.41;99150.66;104538;1255;60421;-53
2023/02/18 10:03:10;;;;;;;7.80;3.50;;;;;;;8.55;62.31;99149.98;104974;1259;60380;-51
2023/02/18 10:06:02;;;;;;;7.60;3.30;;;;;;;8.53;62.31;99149.84;105133;1260;65258;-52
2023/02/18 10:08:44;;;;;;;8.20;3.20;;;;;;;8.55;61.71;99152.10;109040;1254;62584;-53
2023/02/18 10:11:15;;;;;;;9.30;3.40;;;;;;;8.62;61.11;99148.52;109010;1254;65035;-53
2023/02/18 10:13:43;;;;;;;7.70;3.10;;;;;;;8.62;60.80;99148.14;109102;1254;59072;-54
2023/02/18 10:16:16;;;;;;;7.40;3.30;;;;;;;8.70;60.31;99144.92;106628;1258;60501;-53
2023/02/18 10:18:53;;;;;;;8.10;3.40;;;;;;;8.78;59.85;99142.45;105357;1263;66182;-51
2023/02/18 10:21:24;;;;;;;10.40;3.20;;;;;;;8.72;58.83;99142.11;105079;1258;62634;-53
2023/02/18 10:24:31;;;;;;;8.10;3.50;;;;;;;8.81;58.84;99145.91;105091;1257;64852;-52
2023/02/18 10:27:01;;;;;;;10.00;3.80;;;;;;;8.84;58.62;99148.95;105546;1259;60555;-51
2023/02/18 10:29:31;;;;;;;6.30;2.90;;;;;;;8.84;58.20;99154.89;105322;1255;60992;-53
2023/02/18 10:32:22;;;;;;;9.90;2.70;;;;;;;8.78;57.79;99147.75;105148;1263;66192;-49
2023/02/18 10:35:19;;;;;;;11.70;4.00;;;;;;;8.80;57.48;99155.79;105878;1259;62408;-50
2023/02/18 10:37:53;;;;;;;10.90;3.30;;;;;;;8.81;56.67;99147.99;105254;1259;65018;-52
2023/02/18 10:40:40;;;;;;;8.50;3.00;;;;;;;8.70;56.61;99153.02;105706;1260;60348;-53
2023/02/18 10:43:23;;;;;;;10.80;2.70;;;;;;;8.63;56.32;99159.02;105590;1260;60448;-51
2023/02/18 10:46:21;;;;;;;7.60;3.40;;;;;;;8.62;56.17;99154.11;105155;1263;65835;-53
2023/02/18 10:49:05;;;;;;;8.20;2.70;;;;;;;8.66;56.85;99154.43;108134;1259;61488;-53
2023/02/18 10:51:34;;;;;;;6.80;2.60;;;;;;;8.72;57.01;99149.31;109005;1254;65113;-54
2023/02/18 10:54:02;;;;;;;7.40;2.90;;;;;;;8.80;56.48;99156.15;108982;1254;58446;-54
2023/02/18 10:56:34;;;;;;;8.60;2.20;;;;;;;8.83;54.96;99164.92;109181;1260;58122;-55
2023/02/18 10:59:32;;;;;;;5.90;2.00;;;;;;;8.84;54.36;99151.00;109168;1255;66151;-56
2023/02/18 11:02:13;;;;;;;7.80;2.00;;;;;;;8.91;53.73;99134.10;109064;1254;62408;-53
2023/02/18 11:04:41;;;;;;;10.30;2.70;;;;;;;9.02;52.98;99138.11;108994;1256;67127;-53
2023/02/18 11:07:21;;;;;;;6.00;2.20;;;;;;;9.14;52.07;99150.34;105900;1261;60542;-52
2023/02/18 11:09:53;;;;;;;7.50;1.80;;;;;;;9.18;51.87;99145.07;105255;1254;60757;-53
2023/02/18 11:12:23;;;;;;;6.50;1.80;;;;;;;9.19;51.74;99139.77;105334;1261;65161;-53
2023/02/18 11:15:05;;;;;;;9.60;2.20;;;;;;;9.20;51.57;99144.67;105399;1260;62815;-53
2023/02/18 11:17:36;;;;;;;8.80;2.20;;;;;;;9.24;51.33;99144.09;105417;1260;65240;-53
2023/02/18 11:20:20;;;;;;;6.80;2.50;;;;;;;9.31;51.38;99139.29;105363;1260;60313;-52
2023/02/18 11:22:48;;;;;;;6.30;2.30;;;;;;;9.41;51.27;99140.81;105438;1259;60459;-52
2023/02/18 11:25:22;;;;;;;7.60;2.30;;;;;;;9.48;51.01;99145.56;105436;1261;66177;-55
2023/02/18 11:27:57;;;;;;;9.50;2.70;;;;;;;9.46;50.99;99149.13;105319;1256;62818;-54
2023/02/18 11:30:37;;;;;;;7.70;2.90;;;;;;;9.33;51.35;99148.02;105222;1261;63877;-52
2023/02/18 11:33:14;;;;;;;8.30;2.60;;;;;;;9.19;51.95;99149.85;105431;1263;60469;-52
2023/02/18 11:35:55;;;;;;;11.70;2.40;;;;;;;9.06;52.47;99147.58;109154;1255;58201;-53
2023/02/18 11:38:35;;;;;;;7.60;2.20;;;;;;;8.98;52.34;99145.39;105472;1257;66228;-52
2023/02/18 11:41:08;;;;;;;5.70;2.20;;;;;;;8.96;52.98;99139.27;105497;1260;62701;-52
2023/02/18 11:43:41;;;;;;;8.00;2.50;;;;;;;8.98;52.88;99143.98;105345;1260;64176;-53
2023/02/18 11:46:14;;;;;;;6.20;2.20;;;;;;;9.00;52.59;99135.85;109016;1256;58174;-53
2023/02/18 11:48:42;;;;;;;5.40;1.80;;;;;;;9.04;52.46;99142.81;109171;1255;60396;-54
2023/02/18 11:51:18;;;;;;;8.70;2.60;;;;;;;9.10;52.32;99143.55;108913;1254;66496;-55
2023/02/18 11:54:19;;;;;;;;;;;;;;;9.15;52.12;99153.75;106904;1259;61660;-53
2023/02/18 11:56:59;;;;;;;8.60;2.10;;;;;;;9.18;51.40;99147.66;105561;1264;64752;-53
2023/02/18 11:59:29;;;;;;;7.90;2.90;;;;;;;9.23;51.44;99144.07;106239;1257;60437;-58
2023/02/18 12:02:09;;;;;;;6.40;2.10;;;;;;;9.30;51.02;99145.15;105251;1257;60546;-59
2023/02/18 12:04:46;;;;;;;6.00;2.20;;;;;;;9.38;50.81;99142.52;105071;1260;68205;-59